createdAt,value
2019-04-16T00:00:05.560Z,3.33
2019-04-16T00:01:06.810Z,3.22
2019-04-16T00:02:08.187Z,3.23
2019-04-16T00:03:09.580Z,3.20
2019-04-16T00:04:10.966Z,3.26
2019-04-16T00:05:12.341Z,3.20
2019-04-16T00:06:13.719Z,3.22
2019-04-16T00:07:15.098Z,3.19
2019-04-16T00:08:27.421Z,3.22
2019-04-16T00:09:17.824Z,3.19
2019-04-16T00:10:19.207Z,3.19
2019-04-16T00:11:20.595Z,3.28
2019-04-16T00:12:21.984Z,3.20
2019-04-16T00:13:23.361Z,3.22
2019-04-16T00:14:24.748Z,3.20
2019-04-16T00:15:26.141Z,3.15
2019-04-16T00:16:27.508Z,3.12
2019-04-16T00:17:28.892Z,3.10
2019-04-16T00:18:30.268Z,3.17
2019-04-16T00:19:34.675Z,3.19
2019-04-16T00:20:36.759Z,3.17
2019-04-16T00:21:34.342Z,3.13
2019-04-16T00:22:35.741Z,3.13
2019-04-16T00:23:37.130Z,3.13
2019-04-16T00:24:38.519Z,3.15
2019-04-16T00:25:39.906Z,3.13
2019-04-16T00:26:41.297Z,3.15
2019-04-16T00:27:42.692Z,3.13
2019-04-16T00:28:44.082Z,3.13
2019-04-16T00:29:45.474Z,3.17
2019-04-16T00:30:46.846Z,3.17
2019-04-16T00:31:48.227Z,3.15
2019-04-16T00:32:49.605Z,3.12
2019-04-16T00:33:50.992Z,3.13
2019-04-16T00:34:52.373Z,3.12
2019-04-16T00:35:53.751Z,3.12
2019-04-16T00:36:55.132Z,3.12
2019-04-16T00:37:56.525Z,3.13
2019-04-16T00:38:57.903Z,3.10
2019-04-16T00:39:59.366Z,3.16
2019-04-16T00:41:01.357Z,3.12
2019-04-16T00:42:01.972Z,3.08
2019-04-16T00:43:03.356Z,3.15
2019-04-16T00:44:04.742Z,3.16
2019-04-16T00:45:06.122Z,3.10
2019-04-16T00:46:08.267Z,3.05
2019-04-16T00:47:08.856Z,3.10
2019-04-16T00:48:10.240Z,3.05
2019-04-16T00:49:11.626Z,3.04
2019-04-16T00:50:13.006Z,3.04
2019-04-16T00:51:14.386Z,3.07
2019-04-16T00:52:15.775Z,3.04
2019-04-16T00:53:17.150Z,3.01
2019-04-16T00:54:18.530Z,3.02
2019-04-16T00:55:19.916Z,3.05
2019-04-16T00:56:21.298Z,3.04
2019-04-16T00:57:22.698Z,3.05
2019-04-16T00:58:24.072Z,3.05
2019-04-16T00:59:25.467Z,3.05
2019-04-16T01:00:27.644Z,3.02
2019-04-16T01:01:28.185Z,3.07
2019-04-16T01:02:29.571Z,3.08
2019-04-16T01:03:30.961Z,2.98
2019-04-16T01:04:32.343Z,3.02
2019-04-16T01:05:35.244Z,2.99
2019-04-16T01:06:35.085Z,3.01
2019-04-16T01:07:36.461Z,3.05
2019-04-16T01:08:37.853Z,3.01
2019-04-16T01:09:39.229Z,2.99
2019-04-16T01:10:40.613Z,2.98
2019-04-16T01:11:41.992Z,2.98
2019-04-16T01:12:43.377Z,3.05
2019-04-16T01:13:44.757Z,2.95
2019-04-16T01:14:46.165Z,3.04
2019-04-16T01:15:47.522Z,3.05
2019-04-16T01:16:48.904Z,2.99
2019-04-16T01:17:50.293Z,2.95
2019-04-16T01:18:51.675Z,2.95
2019-04-16T01:19:53.063Z,2.97
2019-04-16T01:20:55.449Z,2.98
2019-04-16T01:21:56.808Z,2.97
2019-04-16T01:22:58.185Z,2.94
2019-04-16T01:23:59.568Z,2.87
2019-04-16T01:25:00.962Z,2.83
2019-04-16T01:26:02.346Z,2.98
2019-04-16T01:27:03.735Z,2.90
2019-04-16T01:28:05.116Z,2.97
2019-04-16T01:29:06.488Z,2.99
2019-04-16T01:30:07.889Z,2.83
2019-04-16T01:31:09.251Z,3.02
2019-04-16T01:32:11.668Z,2.81
2019-04-16T01:33:14.433Z,2.87
2019-04-16T01:34:15.324Z,2.95
2019-04-16T01:35:18.646Z,2.86
2019-04-16T01:36:16.003Z,2.84
2019-04-16T01:37:17.388Z,2.86
2019-04-16T01:38:18.771Z,2.94
2019-04-16T01:39:20.159Z,2.90
2019-04-16T01:40:21.543Z,2.90
2019-04-16T01:41:22.931Z,2.89
2019-04-16T01:42:24.320Z,2.81
2019-04-16T01:43:26.395Z,2.80
2019-04-16T01:44:29.497Z,2.83
2019-04-16T01:45:29.802Z,2.83
2019-04-16T01:46:32.541Z,2.84
2019-04-16T01:47:33.411Z,2.80
2019-04-16T01:48:32.428Z,2.81
2019-04-16T01:49:33.812Z,2.86
2019-04-16T01:50:35.186Z,2.83
2019-04-16T01:51:37.733Z,2.81
2019-04-16T01:52:37.914Z,2.74
2019-04-16T01:53:39.292Z,2.77
2019-04-16T01:54:40.679Z,2.74
2019-04-16T01:55:42.585Z,2.69
2019-04-16T01:56:43.411Z,2.66
2019-04-16T01:57:44.799Z,2.73
2019-04-16T01:58:46.182Z,2.76
2019-04-16T01:59:47.559Z,2.71
2019-04-16T02:00:48.945Z,2.74
2019-04-16T02:01:50.346Z,2.77
2019-04-16T02:02:51.701Z,2.71
2019-04-16T02:03:53.083Z,2.77
2019-04-16T02:04:54.465Z,2.71
2019-04-16T02:05:55.866Z,2.65
2019-04-16T02:06:57.831Z,2.63
2019-04-16T02:07:59.211Z,2.63
2019-04-16T02:09:02.947Z,2.65
2019-04-16T02:10:05.792Z,2.63
2019-04-16T02:11:02.635Z,2.68
2019-04-16T02:12:04.019Z,2.66
2019-04-16T02:13:05.402Z,2.66
2019-04-16T02:14:06.877Z,2.63
2019-04-16T02:15:08.128Z,2.71
2019-04-16T02:16:09.505Z,2.73
2019-04-16T02:17:10.892Z,2.69
2019-04-16T02:18:12.428Z,2.68
2019-04-16T02:19:13.618Z,2.62
2019-04-16T02:20:14.998Z,2.63
2019-04-16T02:21:16.373Z,2.62
2019-04-16T02:22:17.755Z,2.62
2019-04-16T02:23:19.137Z,2.59
2019-04-16T02:24:20.522Z,2.51
2019-04-16T02:25:21.897Z,2.58
2019-04-16T02:26:24.139Z,2.58
2019-04-16T02:27:26.236Z,2.59
2019-04-16T02:28:28.180Z,2.58
2019-04-16T02:29:29.771Z,2.56
2019-04-16T02:30:28.650Z,2.61
2019-04-16T02:31:30.023Z,2.53
2019-04-16T02:32:31.408Z,2.55
2019-04-16T02:33:32.800Z,2.53
2019-04-16T02:34:34.167Z,2.43
2019-04-16T02:35:35.593Z,2.53
2019-04-16T02:36:36.934Z,2.50
2019-04-16T02:37:38.332Z,2.50
2019-04-16T02:38:46.436Z,2.51
2019-04-16T02:39:49.251Z,2.50
2019-04-16T02:40:42.577Z,2.48
2019-04-16T02:41:43.961Z,2.45
2019-04-16T02:42:45.352Z,2.50
2019-04-16T02:43:46.731Z,2.50
2019-04-16T02:44:49.851Z,2.53
2019-04-16T02:45:49.446Z,2.44
2019-04-16T02:46:50.827Z,2.47
2019-04-16T02:47:52.206Z,2.50
2019-04-16T02:48:53.591Z,2.51
2019-04-16T02:49:56.799Z,2.43
2019-04-16T02:50:56.314Z,2.44
2019-04-16T02:51:57.702Z,2.47
2019-04-16T02:52:59.072Z,2.38
2019-04-16T02:54:00.454Z,2.38
2019-04-16T02:55:07.668Z,2.33
2019-04-16T02:56:03.222Z,2.40
2019-04-16T02:57:04.621Z,2.41
2019-04-16T02:58:05.901Z,2.29
2019-04-16T02:59:11.756Z,2.41
2019-04-16T03:00:08.632Z,2.33
2019-04-16T03:01:10.009Z,2.29
2019-04-16T03:02:11.391Z,2.32
2019-04-16T03:03:12.785Z,2.40
2019-04-16T03:04:14.165Z,2.29
2019-04-16T03:05:15.549Z,2.27
2019-04-16T03:06:16.934Z,2.29
2019-04-16T03:07:18.311Z,2.30
2019-04-16T03:08:19.689Z,2.23
2019-04-16T03:09:21.072Z,2.27
2019-04-16T03:10:22.456Z,2.27
2019-04-16T03:11:23.828Z,2.29
2019-04-16T03:12:25.222Z,2.26
2019-04-16T03:13:26.604Z,2.26
2019-04-16T03:14:29.982Z,2.30
2019-04-16T03:15:30.283Z,2.25
2019-04-16T03:16:30.674Z,2.29
2019-04-16T03:17:32.067Z,2.14
2019-04-16T03:18:33.453Z,2.15
2019-04-16T03:19:34.830Z,2.15
2019-04-16T03:20:36.215Z,2.23
2019-04-16T03:21:37.594Z,2.20
2019-04-16T03:22:38.974Z,2.15
2019-04-16T03:23:40.351Z,2.20
2019-04-16T03:24:41.745Z,2.18
2019-04-16T03:25:44.409Z,2.19
2019-04-16T03:26:44.520Z,2.19
2019-04-16T03:27:45.807Z,2.11
2019-04-16T03:28:47.195Z,2.11
2019-04-16T03:29:48.579Z,2.15
2019-04-16T03:30:49.958Z,2.09
2019-04-16T03:31:57.689Z,2.15
2019-04-16T03:32:52.693Z,2.05
2019-04-16T03:33:54.065Z,2.08
2019-04-16T03:34:55.457Z,2.12
2019-04-16T03:35:57.789Z,2.07
2019-04-16T03:36:58.613Z,2.11
2019-04-16T03:38:01.653Z,2.09
2019-04-16T03:39:00.864Z,2.04
2019-04-16T03:40:15.161Z,2.14
2019-04-16T03:41:03.590Z,2.02
2019-04-16T03:42:04.968Z,1.98
2019-04-16T03:43:06.364Z,2.11
2019-04-16T03:44:07.863Z,1.92
2019-04-16T03:45:09.802Z,2.02
2019-04-16T03:46:12.787Z,2.07
2019-04-16T03:47:11.794Z,1.98
2019-04-16T03:48:13.312Z,2.00
2019-04-16T03:49:14.528Z,1.93
2019-04-16T03:50:15.901Z,2.05
2019-04-16T03:51:17.284Z,1.98
2019-04-16T03:52:18.667Z,1.92
2019-04-16T03:53:20.061Z,1.98
2019-04-16T03:54:22.351Z,1.89
2019-04-16T03:55:25.642Z,1.93
2019-04-16T03:56:24.142Z,2.00
2019-04-16T03:57:25.525Z,1.93
2019-04-16T03:58:26.902Z,1.93
2019-04-16T03:59:28.291Z,1.98
2019-04-16T04:00:29.673Z,1.89
2019-04-16T04:01:31.065Z,1.89
2019-04-16T04:02:32.465Z,1.89
2019-04-16T04:03:33.847Z,1.83
2019-04-16T04:04:35.237Z,1.88
2019-04-16T04:05:36.623Z,1.88
2019-04-16T04:06:39.658Z,1.93
2019-04-16T04:07:43.907Z,1.85
2019-04-16T04:08:40.688Z,1.90
2019-04-16T04:09:42.082Z,1.89
2019-04-16T04:10:43.496Z,1.86
2019-04-16T04:11:44.878Z,1.93
2019-04-16T04:12:46.604Z,1.93
2019-04-16T04:13:50.035Z,1.95
2019-04-16T04:14:51.270Z,1.92
2019-04-16T04:15:50.315Z,1.85
2019-04-16T04:16:51.704Z,1.88
2019-04-16T04:17:53.084Z,1.93
2019-04-16T04:18:54.477Z,1.89
2019-04-16T04:19:55.863Z,1.89
2019-04-16T04:20:57.245Z,1.92
2019-04-16T04:21:58.635Z,1.88
2019-04-16T04:23:00.025Z,1.86
2019-04-16T04:24:01.404Z,1.98
2019-04-16T04:25:04.376Z,1.90
2019-04-16T04:26:05.474Z,1.92
2019-04-16T04:27:05.482Z,1.89
2019-04-16T04:28:06.873Z,1.92
2019-04-16T04:29:08.263Z,1.90
2019-04-16T04:30:09.821Z,1.89
2019-04-16T04:31:11.022Z,1.89
2019-04-16T04:32:12.376Z,1.89
2019-04-16T04:33:13.766Z,1.86
2019-04-16T04:34:16.991Z,1.90
2019-04-16T04:35:20.196Z,1.95
2019-04-16T04:36:19.594Z,1.86
2019-04-16T04:37:19.255Z,1.92
2019-04-16T04:38:20.634Z,1.90
2019-04-16T04:39:22.022Z,1.90
2019-04-16T04:40:23.414Z,1.92
2019-04-16T04:41:24.800Z,1.95
2019-04-16T04:42:28.248Z,1.88
2019-04-16T04:43:29.373Z,2.00
2019-04-16T04:44:28.869Z,2.07
2019-04-16T04:45:30.255Z,2.07
2019-04-16T04:46:31.640Z,2.09
2019-04-16T04:47:33.025Z,2.12
2019-04-16T04:48:34.422Z,2.19
2019-04-16T04:49:35.803Z,2.29
2019-04-16T04:50:37.192Z,2.26
2019-04-16T04:51:42.484Z,2.29
2019-04-16T04:52:39.955Z,2.32
2019-04-16T04:53:41.349Z,2.40
2019-04-16T04:54:42.745Z,2.32
2019-04-16T04:55:44.139Z,2.30
2019-04-16T04:56:45.524Z,2.47
2019-04-16T04:57:46.905Z,2.43
2019-04-16T04:58:48.387Z,2.47
2019-04-16T04:59:49.657Z,2.47
2019-04-16T05:00:51.043Z,2.43
2019-04-16T05:01:52.432Z,2.59
2019-04-16T05:02:53.824Z,2.63
2019-04-16T05:03:55.227Z,2.66
2019-04-16T05:04:56.610Z,2.71
2019-04-16T05:05:57.998Z,2.77
2019-04-16T05:06:59.386Z,2.65
2019-04-16T05:08:00.792Z,2.81
2019-04-16T05:09:02.158Z,2.81
2019-04-16T05:10:04.650Z,2.81
2019-04-16T05:11:04.901Z,2.89
2019-04-16T05:12:08.040Z,2.87
2019-04-16T05:13:07.631Z,3.05
2019-04-16T05:14:09.191Z,3.01
2019-04-16T05:15:10.585Z,3.04
2019-04-16T05:16:11.973Z,3.12
2019-04-16T05:17:13.354Z,3.19
2019-04-16T05:18:14.749Z,3.19
2019-04-16T05:19:16.135Z,3.20
2019-04-16T05:20:17.517Z,3.22
2019-04-16T05:21:19.499Z,3.37
2019-04-16T05:22:21.581Z,3.34
2019-04-16T05:23:24.648Z,3.41
2019-04-16T05:24:23.195Z,3.42
2019-04-16T05:25:24.595Z,3.41
2019-04-16T05:26:25.984Z,3.45
2019-04-16T05:27:29.281Z,3.54
2019-04-16T05:28:28.723Z,3.59
2019-04-16T05:29:30.124Z,3.64
2019-04-16T05:30:31.526Z,3.67
2019-04-16T05:31:32.985Z,3.62
2019-04-16T05:32:34.378Z,3.77
2019-04-16T05:33:37.443Z,3.71
2019-04-16T05:34:37.400Z,3.84
2019-04-16T05:35:41.088Z,4.04
2019-04-16T05:36:40.249Z,4.04
2019-04-16T05:37:41.222Z,4.25
2019-04-16T05:38:42.623Z,4.26
2019-04-16T05:39:44.021Z,4.46
2019-04-16T05:40:45.408Z,4.59
2019-04-16T05:41:46.804Z,4.97
2019-04-16T05:42:48.186Z,5.32
2019-04-16T05:43:49.600Z,5.55
2019-04-16T05:44:51.001Z,5.51
2019-04-16T05:45:52.404Z,5.45
2019-04-16T05:46:53.805Z,5.41
2019-04-16T05:47:56.029Z,5.40
2019-04-16T05:48:57.420Z,5.42
2019-04-16T05:49:58.871Z,5.41
2019-04-16T05:51:00.706Z,5.40
2019-04-16T05:52:03.817Z,5.40
2019-04-16T05:53:05.321Z,5.48
2019-04-16T05:54:04.392Z,5.51
2019-04-16T05:55:05.785Z,5.60
2019-04-16T05:56:07.185Z,5.58
2019-04-16T05:57:08.568Z,5.62
2019-04-16T05:58:09.956Z,5.66
2019-04-16T05:59:11.344Z,5.73
2019-04-16T06:00:12.732Z,5.87
2019-04-16T06:01:14.450Z,5.96
2019-04-16T06:02:18.188Z,6.17
2019-04-16T06:03:20.636Z,6.35
2019-04-16T06:04:18.206Z,6.42
2019-04-16T06:05:19.630Z,6.50
2019-04-16T06:06:20.978Z,6.51
2019-04-16T06:07:22.359Z,6.71
2019-04-16T06:08:23.945Z,6.93
2019-04-16T06:09:25.115Z,7.14
2019-04-16T06:10:26.504Z,7.42
2019-04-16T06:11:35.025Z,7.85
2019-04-16T06:12:32.381Z,8.21
2019-04-16T06:13:30.636Z,8.70
2019-04-16T06:14:32.039Z,8.96
2019-04-16T06:15:35.754Z,8.98
2019-04-16T06:16:34.775Z,9.00
2019-04-16T06:17:36.169Z,9.01
2019-04-16T06:18:38.147Z,9.15
2019-04-16T06:19:43.726Z,9.27
2019-04-16T06:20:40.273Z,9.52
2019-04-16T06:21:41.666Z,9.88
2019-04-16T06:22:43.055Z,10.34
2019-04-16T06:23:44.455Z,10.86
2019-04-16T06:24:45.858Z,11.17
2019-04-16T06:25:47.262Z,11.42
2019-04-16T06:26:48.655Z,11.35
2019-04-16T06:27:50.099Z,11.48
2019-04-16T06:28:55.170Z,11.70
2019-04-16T06:29:52.861Z,11.87
2019-04-16T06:30:54.264Z,12.62
2019-04-16T06:31:55.678Z,13.86
2019-04-16T06:32:57.066Z,14.69
2019-04-16T06:33:58.468Z,15.95
2019-04-16T06:34:59.865Z,16.92
2019-04-16T06:36:01.273Z,17.55
2019-04-16T06:37:02.669Z,18.42
2019-04-16T06:38:04.071Z,19.35
2019-04-16T06:39:05.466Z,20.12
2019-04-16T06:40:06.882Z,20.93
2019-04-16T06:41:08.279Z,21.85
2019-04-16T06:42:09.687Z,22.36
2019-04-16T06:43:11.091Z,22.97
2019-04-16T06:44:12.494Z,23.42
2019-04-16T06:45:13.904Z,23.81
2019-04-16T06:46:15.318Z,23.84
2019-04-16T06:47:16.730Z,24.46
2019-04-16T06:48:18.129Z,24.61
2019-04-16T06:49:19.539Z,24.87
2019-04-16T06:50:31.349Z,24.52
2019-04-16T06:51:22.325Z,24.86
2019-04-16T06:52:23.740Z,25.17
2019-04-16T06:53:25.256Z,25.45
2019-04-16T06:54:31.285Z,25.85
2019-04-16T06:55:28.009Z,25.79
2019-04-16T06:56:29.264Z,25.82
2019-04-16T06:57:30.682Z,26.46
2019-04-16T06:58:49.714Z,26.29
2019-04-16T06:59:33.466Z,26.60
2019-04-16T07:00:35.288Z,26.79
2019-04-16T07:01:37.445Z,26.88
2019-04-16T07:02:40.690Z,27.12
2019-04-16T07:03:38.992Z,27.45
2019-04-16T07:04:40.410Z,27.42
2019-04-16T07:05:41.819Z,27.93
2019-04-16T07:06:43.884Z,28.18
2019-04-16T07:07:46.836Z,28.80
2019-04-16T07:08:49.787Z,29.39
2019-04-16T07:09:47.357Z,29.99
2019-04-16T07:10:48.791Z,30.28
2019-04-16T07:11:54.604Z,30.61
2019-04-16T07:12:51.607Z,30.11
2019-04-16T07:13:52.979Z,29.95
2019-04-16T07:14:54.397Z,29.97
2019-04-16T07:15:56.855Z,29.67
2019-04-16T07:16:59.913Z,29.10
2019-04-16T07:17:58.633Z,29.14
2019-04-16T07:19:00.070Z,29.29
2019-04-16T07:20:04.457Z,29.76
2019-04-16T07:21:02.926Z,30.10
2019-04-16T07:22:04.360Z,30.08
2019-04-16T07:23:05.795Z,30.10
2019-04-16T07:24:07.290Z,30.23
2019-04-16T07:25:08.677Z,30.11
2019-04-16T07:26:13.495Z,30.25
2019-04-16T07:27:11.427Z,30.75
2019-04-16T07:28:12.782Z,30.96
2019-04-16T07:29:14.186Z,31.34
2019-04-16T07:30:19.348Z,31.53
2019-04-16T07:31:31.773Z,31.78
2019-04-16T07:32:18.291Z,31.90
2019-04-16T07:33:19.691Z,31.74
2019-04-16T07:34:21.110Z,31.30
2019-04-16T07:35:22.534Z,31.37
2019-04-16T07:36:24.260Z,31.35
2019-04-16T07:37:25.346Z,31.53
2019-04-16T07:38:26.772Z,30.94
2019-04-16T07:39:29.546Z,31.00
2019-04-16T07:40:29.762Z,31.34
2019-04-16T07:41:31.196Z,31.52
2019-04-16T07:42:32.609Z,31.84
2019-04-16T07:43:34.031Z,31.79
2019-04-16T07:44:36.503Z,32.56
2019-04-16T07:45:36.827Z,32.58
2019-04-16T07:46:38.239Z,32.34
2019-04-16T07:47:39.647Z,32.34
2019-04-16T07:48:41.078Z,32.88
2019-04-16T07:49:42.542Z,33.34
2019-04-16T07:50:43.957Z,34.12
2019-04-16T07:51:45.368Z,34.45
2019-04-16T07:52:46.782Z,34.75
2019-04-16T07:53:48.190Z,35.34
2019-04-16T07:54:49.655Z,35.50
2019-04-16T07:55:51.077Z,35.18
2019-04-16T07:56:52.499Z,35.22
2019-04-16T07:57:53.920Z,35.10
2019-04-16T07:59:00.046Z,35.02
2019-04-16T07:59:56.920Z,34.46
2019-04-16T08:00:58.086Z,34.01
2019-04-16T08:01:59.498Z,33.75
2019-04-16T08:03:00.911Z,33.29
2019-04-16T08:04:03.159Z,32.41
2019-04-16T08:05:07.463Z,31.54
2019-04-16T08:06:05.090Z,30.86
2019-04-16T08:07:06.505Z,30.54
2019-04-16T08:08:08.188Z,30.72
2019-04-16T08:09:09.298Z,30.67
2019-04-16T08:10:10.713Z,31.59
2019-04-16T08:11:12.120Z,32.25
2019-04-16T08:12:29.340Z,32.88
2019-04-16T08:13:14.908Z,33.14
2019-04-16T08:14:16.330Z,33.44
2019-04-16T08:15:17.733Z,34.34
2019-04-16T08:16:19.230Z,34.93
2019-04-16T08:17:20.525Z,35.61
2019-04-16T08:18:21.930Z,34.93
2019-04-16T08:19:36.123Z,35.17
2019-04-16T08:20:24.736Z,35.64
2019-04-16T08:21:26.155Z,36.12
2019-04-16T08:22:27.633Z,36.57
2019-04-16T08:23:28.963Z,36.94
2019-04-16T08:24:30.374Z,37.43
2019-04-16T08:25:33.979Z,37.96
2019-04-16T08:26:33.181Z,37.87
2019-04-16T08:27:34.598Z,37.97
2019-04-16T08:28:36.027Z,38.07
2019-04-16T08:29:37.514Z,38.26
2019-04-16T08:30:39.448Z,38.26
2019-04-16T08:31:40.784Z,37.56
2019-04-16T08:32:41.691Z,37.85
2019-04-16T08:33:43.105Z,38.22
2019-04-16T08:34:44.519Z,38.68
2019-04-16T08:35:45.938Z,39.31
2019-04-16T08:36:47.361Z,39.87
2019-04-16T08:37:49.543Z,40.07
2019-04-16T08:38:50.153Z,39.84
2019-04-16T08:39:51.578Z,39.80
2019-04-16T08:40:52.992Z,40.00
2019-04-16T08:41:54.409Z,40.28
2019-04-16T08:42:57.522Z,40.38
2019-04-16T08:43:59.801Z,40.06
2019-04-16T08:44:58.654Z,40.29
2019-04-16T08:45:59.962Z,40.04
2019-04-16T08:47:01.396Z,40.18
2019-04-16T08:48:02.809Z,40.63
2019-04-16T08:49:04.226Z,40.76
2019-04-16T08:50:05.633Z,40.91
2019-04-16T08:51:07.065Z,41.29
2019-04-16T08:52:10.219Z,41.17
2019-04-16T08:53:13.504Z,39.50
2019-04-16T08:54:11.388Z,37.80
2019-04-16T08:55:12.612Z,35.74
2019-04-16T08:56:14.026Z,34.38
2019-04-16T08:57:15.444Z,33.78
2019-04-16T08:58:16.860Z,32.27
2019-04-16T08:59:18.270Z,32.27
2019-04-16T09:00:19.692Z,31.87
2019-04-16T09:01:23.574Z,31.59
2019-04-16T09:02:23.555Z,31.15
2019-04-16T09:03:26.925Z,31.13
2019-04-16T09:04:25.255Z,31.34
2019-04-16T09:05:26.668Z,31.67
2019-04-16T09:06:28.079Z,31.10
2019-04-16T09:07:29.486Z,30.42
2019-04-16T09:08:30.897Z,29.99
2019-04-16T09:09:32.311Z,29.97
2019-04-16T09:10:33.723Z,29.70
2019-04-16T09:11:35.563Z,29.48
2019-04-16T09:12:40.760Z,28.43
2019-04-16T09:13:40.908Z,27.59
2019-04-16T09:14:39.244Z,25.72
2019-04-16T09:15:40.642Z,25.08
2019-04-16T09:16:43.575Z,24.60
2019-04-16T09:17:43.455Z,24.12
2019-04-16T09:18:44.852Z,23.59
2019-04-16T09:19:46.249Z,23.21
2019-04-16T09:20:47.672Z,22.99
2019-04-16T09:21:49.086Z,23.03
2019-04-16T09:22:53.625Z,22.96
2019-04-16T09:23:51.866Z,22.99
2019-04-16T09:24:53.263Z,22.81
2019-04-16T09:25:54.673Z,22.42
2019-04-16T09:26:56.434Z,22.09
2019-04-16T09:28:00.629Z,22.20
2019-04-16T09:29:01.496Z,22.79
2019-04-16T09:30:00.347Z,23.54
2019-04-16T09:31:01.537Z,24.44
2019-04-16T09:32:02.939Z,25.24
2019-04-16T09:33:04.354Z,26.27
2019-04-16T09:34:06.594Z,26.76
2019-04-16T09:35:09.771Z,26.97
2019-04-16T09:36:08.494Z,27.78
2019-04-16T09:37:09.899Z,27.80
2019-04-16T09:38:13.095Z,28.32
2019-04-16T09:39:12.664Z,28.64
2019-04-16T09:40:17.786Z,29.26
2019-04-16T09:41:15.704Z,28.80
2019-04-16T09:42:16.814Z,28.57
2019-04-16T09:43:18.588Z,29.18
2019-04-16T09:44:19.600Z,29.69
2019-04-16T09:45:21.237Z,30.44
2019-04-16T09:46:48.037Z,30.86
2019-04-16T09:47:23.768Z,31.57
2019-04-16T09:48:25.162Z,31.42
2019-04-16T09:49:26.572Z,30.59
2019-04-16T09:50:27.978Z,29.69
2019-04-16T09:51:29.384Z,29.82
2019-04-16T09:52:30.798Z,30.04
2019-04-16T09:53:34.208Z,30.61
2019-04-16T09:54:33.626Z,31.46
2019-04-16T09:55:35.053Z,32.17
2019-04-16T09:56:36.470Z,32.40
2019-04-16T09:57:37.876Z,32.31
2019-04-16T09:58:42.421Z,32.62
2019-04-16T09:59:40.692Z,32.12
2019-04-16T10:00:42.106Z,32.35
2019-04-16T10:01:43.533Z,31.71
2019-04-16T10:02:44.964Z,31.71
2019-04-16T10:03:46.382Z,31.72
2019-04-16T10:04:47.807Z,31.65
2019-04-16T10:05:49.222Z,32.27
2019-04-16T10:06:50.669Z,32.44
2019-04-16T10:07:52.078Z,33.34
2019-04-16T10:08:56.468Z,31.95
2019-04-16T10:09:55.313Z,31.71
2019-04-16T10:10:58.119Z,31.95
2019-04-16T10:11:57.657Z,32.05
2019-04-16T10:12:59.050Z,32.54
2019-04-16T10:14:00.464Z,32.09
2019-04-16T10:15:01.885Z,31.75
2019-04-16T10:16:03.344Z,31.28
2019-04-16T10:17:04.752Z,31.10
2019-04-16T10:18:06.201Z,30.85
2019-04-16T10:19:08.440Z,31.19
2019-04-16T10:20:08.970Z,31.91
2019-04-16T10:21:10.550Z,32.53
2019-04-16T10:22:11.966Z,32.27
2019-04-16T10:23:13.391Z,32.85
2019-04-16T10:24:14.811Z,32.10
2019-04-16T10:25:16.216Z,30.98
2019-04-16T10:26:17.637Z,30.32
2019-04-16T10:27:19.132Z,30.86
2019-04-16T10:28:20.540Z,29.82
2019-04-16T10:29:21.974Z,28.79
2019-04-16T10:30:23.663Z,28.28
2019-04-16T10:31:24.745Z,27.72
2019-04-16T10:32:26.156Z,27.40
2019-04-16T10:33:27.590Z,26.91
2019-04-16T10:34:29.017Z,25.08
2019-04-16T10:35:30.417Z,24.04
2019-04-16T10:36:36.704Z,23.49
2019-04-16T10:37:33.229Z,21.90
2019-04-16T10:38:34.712Z,21.00
2019-04-16T10:39:36.097Z,20.41
2019-04-16T10:40:37.536Z,19.90
2019-04-16T10:41:38.953Z,19.95
2019-04-16T10:42:40.397Z,20.02
2019-04-16T10:43:44.808Z,20.37
2019-04-16T10:44:43.257Z,20.41
2019-04-16T10:45:44.590Z,21.33
2019-04-16T10:46:45.985Z,22.29
2019-04-16T10:47:47.411Z,23.07
2019-04-16T10:48:48.828Z,23.69
2019-04-16T10:49:50.238Z,24.46
2019-04-16T10:50:51.654Z,24.63
2019-04-16T10:51:53.057Z,24.89
2019-04-16T10:52:55.877Z,24.67
2019-04-16T10:53:55.928Z,24.93
2019-04-16T10:54:57.240Z,24.63
2019-04-16T10:55:58.687Z,24.41
2019-04-16T10:57:00.046Z,24.30
2019-04-16T10:58:01.486Z,24.16
2019-04-16T10:59:02.897Z,24.23
2019-04-16T11:00:04.334Z,24.08
2019-04-16T11:01:05.715Z,24.30
2019-04-16T11:02:09.679Z,24.34
2019-04-16T11:03:08.510Z,24.04
2019-04-16T11:04:10.014Z,24.39
2019-04-16T11:05:11.302Z,24.61
2019-04-16T11:06:12.706Z,25.04
2019-04-16T11:07:14.149Z,25.45
2019-04-16T11:08:15.577Z,25.48
2019-04-16T11:09:16.999Z,25.36
2019-04-16T11:10:18.411Z,25.20
2019-04-16T11:11:19.809Z,24.64
2019-04-16T11:12:21.219Z,24.80
2019-04-16T11:13:22.661Z,24.61
2019-04-16T11:14:24.071Z,24.11
2019-04-16T11:15:25.513Z,23.87
2019-04-16T11:16:27.003Z,24.06
2019-04-16T11:17:28.281Z,23.94
2019-04-16T11:18:29.693Z,23.96
2019-04-16T11:19:31.107Z,23.97
2019-04-16T11:20:32.510Z,23.93
2019-04-16T11:21:33.920Z,23.72
2019-04-16T11:22:35.331Z,23.69
2019-04-16T11:23:36.743Z,23.94
2019-04-16T11:24:38.162Z,24.18
2019-04-16T11:25:39.589Z,23.90
2019-04-16T11:26:44.202Z,23.38
2019-04-16T11:27:42.431Z,23.44
2019-04-16T11:28:43.798Z,23.35
2019-04-16T11:29:45.244Z,23.19
2019-04-16T11:30:48.730Z,22.93
2019-04-16T11:31:48.026Z,22.79
2019-04-16T11:32:49.407Z,22.96
2019-04-16T11:33:50.828Z,22.82
2019-04-16T11:34:52.268Z,22.54
2019-04-16T11:35:53.776Z,22.11
2019-04-16T11:36:58.186Z,21.82
2019-04-16T11:37:56.401Z,21.59
2019-04-16T11:38:57.821Z,21.55
2019-04-16T11:39:59.246Z,21.56
2019-04-16T11:41:00.643Z,21.42
2019-04-16T11:42:02.094Z,21.36
2019-04-16T11:43:03.491Z,21.15
2019-04-16T11:44:14.767Z,20.88
2019-04-16T11:45:06.258Z,20.31
2019-04-16T11:46:07.672Z,20.12
2019-04-16T11:47:09.079Z,19.79
2019-04-16T11:48:10.481Z,19.49
2019-04-16T11:49:12.138Z,19.45
2019-04-16T11:50:13.410Z,19.17
2019-04-16T11:51:14.648Z,18.94
2019-04-16T11:52:16.061Z,18.84
2019-04-16T11:53:17.453Z,18.79
2019-04-16T11:54:18.884Z,18.62
2019-04-16T11:55:20.294Z,18.66
2019-04-16T11:56:22.665Z,18.78
2019-04-16T11:57:23.052Z,18.82
2019-04-16T11:58:24.458Z,18.82
2019-04-16T11:59:26.499Z,18.72
2019-04-16T12:00:27.919Z,18.79
2019-04-16T12:01:29.331Z,18.72
2019-04-16T12:02:30.707Z,18.86
2019-04-16T12:03:34.971Z,18.69
2019-04-16T12:04:33.505Z,18.32
2019-04-16T12:05:34.899Z,17.83
2019-04-16T12:06:36.327Z,17.65
2019-04-16T12:07:37.712Z,17.58
2019-04-16T12:08:39.163Z,17.39
2019-04-16T12:09:40.577Z,17.35
2019-04-16T12:10:41.974Z,17.40
2019-04-16T12:11:43.373Z,17.27
2019-04-16T12:12:44.794Z,17.35
2019-04-16T12:13:46.238Z,17.43
2019-04-16T12:14:47.646Z,17.40
2019-04-16T12:15:49.043Z,17.42
2019-04-16T12:16:50.461Z,17.47
2019-04-16T12:17:51.794Z,17.38
2019-04-16T12:18:53.232Z,17.30
2019-04-16T12:19:54.729Z,17.27
2019-04-16T12:20:55.988Z,17.06
2019-04-16T12:21:57.400Z,17.17
2019-04-16T12:22:58.765Z,17.17
2019-04-16T12:24:00.187Z,17.30
2019-04-16T12:25:01.573Z,17.32
2019-04-16T12:26:02.968Z,17.45
2019-04-16T12:27:04.370Z,17.51
2019-04-16T12:28:09.765Z,17.49
2019-04-16T12:29:07.191Z,17.66
2019-04-16T12:30:08.573Z,17.81
2019-04-16T12:31:09.945Z,17.70
2019-04-16T12:32:11.462Z,17.71
2019-04-16T12:33:14.362Z,17.80
2019-04-16T12:34:14.108Z,17.81
2019-04-16T12:35:15.545Z,17.95
2019-04-16T12:36:16.937Z,18.10
2019-04-16T12:37:18.346Z,18.14
2019-04-16T12:38:19.736Z,18.13
2019-04-16T12:39:21.144Z,17.99
2019-04-16T12:40:22.544Z,17.87
2019-04-16T12:41:23.953Z,17.86
2019-04-16T12:42:25.359Z,17.62
2019-04-16T12:43:26.800Z,17.35
2019-04-16T12:44:28.207Z,17.35
2019-04-16T12:45:29.565Z,17.25
2019-04-16T12:46:30.965Z,17.22
2019-04-16T12:47:32.368Z,17.30
2019-04-16T12:48:33.770Z,17.30
2019-04-16T12:49:35.242Z,17.30
2019-04-16T12:50:36.579Z,17.06
2019-04-16T12:51:40.810Z,16.96
2019-04-16T12:52:39.340Z,16.95
2019-04-16T12:53:40.741Z,16.91
2019-04-16T12:54:42.145Z,16.82
2019-04-16T12:55:43.533Z,16.63
2019-04-16T12:56:44.940Z,16.52
2019-04-16T12:57:47.157Z,16.48
2019-04-16T12:58:50.332Z,16.42
2019-04-16T12:59:52.155Z,16.51
2019-04-16T13:00:50.453Z,16.48
2019-04-16T13:01:51.897Z,16.50
2019-04-16T13:02:53.299Z,16.23
2019-04-16T13:03:54.703Z,16.27
2019-04-16T13:04:56.237Z,16.16
2019-04-16T13:06:01.313Z,16.18
2019-04-16T13:06:59.063Z,15.93
2019-04-16T13:08:00.519Z,15.95
2019-04-16T13:09:02.149Z,15.98
2019-04-16T13:10:03.195Z,16.03
2019-04-16T13:11:07.761Z,16.04
2019-04-16T13:12:09.498Z,16.13
2019-04-16T13:13:07.967Z,16.17
2019-04-16T13:14:09.369Z,16.16
2019-04-16T13:15:10.848Z,16.22
2019-04-16T13:16:12.218Z,16.14
2019-04-16T13:17:15.168Z,16.04
2019-04-16T13:18:14.857Z,15.96
2019-04-16T13:19:16.276Z,16.06
2019-04-16T13:20:17.684Z,15.74
2019-04-16T13:21:19.086Z,15.68
2019-04-16T13:22:20.488Z,15.73